Time;durP1;ratioP1;P1;durP2;ratioP2;P2;SDS_P1;SDS_P2;PMS_P1;PMS_P2;Temp;Humidity;BMP_temperature;BMP_pressure;BME280_temperature;BME280_humidity;BME280_pressure;Samples;Min_cycle;Max_cycle;Signal;HPM_P1;HPM_P2
2023/10/29 00:01:39;;;;;;;3.42;2.72;;;;;;;0.85;85.45;97268.88;5051792;28;20402;-60
2023/10/29 00:04:05;;;;;;;4.00;2.72;;;;;;;0.96;85.37;97268.09;5051807;28;20041;-61
2023/10/29 00:06:31;;;;;;;3.20;2.50;;;;;;;1.02;84.73;97282.84;5051813;28;20041;-59
2023/10/29 00:08:56;;;;;;;4.18;2.60;;;;;;;1.03;84.81;97291.47;5051665;28;20128;-61
2023/10/29 00:11:22;;;;;;;2.80;2.42;;;;;;;0.93;85.25;97291.25;5054545;28;20111;-59
2023/10/29 00:13:48;;;;;;;3.95;2.75;;;;;;;0.97;85.17;97293.19;5071185;28;20048;-59
2023/10/29 00:16:14;;;;;;;3.15;2.53;;;;;;;1.04;84.81;97295.69;5071655;28;20045;-59
2023/10/29 00:18:40;;;;;;;4.75;2.90;;;;;;;0.95;85.08;97304.88;5071261;28;20036;-59
2023/10/29 00:21:06;;;;;;;5.03;2.80;;;;;;;0.98;84.92;97299.97;5071882;28;20553;-59
2023/10/29 00:23:32;;;;;;;2.67;2.45;;;;;;;1.02;84.79;97303.72;5071389;28;20037;-59
2023/10/29 00:25:58;;;;;;;3.45;2.70;;;;;;;1.13;85.12;97309.97;5071230;28;20094;-60
2023/10/29 00:28:25;;;;;;;5.03;2.92;;;;;;;1.08;84.67;97302.81;5071396;28;20036;-60
2023/10/29 00:30:54;;;;;;;4.93;3.00;;;;;;;1.05;84.66;97307.69;5070151;28;20482;-60
2023/10/29 00:33:20;;;;;;;4.03;3.00;;;;;;;1.03;84.89;97307.09;5070144;28;20076;-60
2023/10/29 00:35:46;;;;;;;4.15;2.78;;;;;;;1.07;85.18;97316.88;5070129;28;20458;-60
2023/10/29 00:38:13;;;;;;;3.97;3.03;;;;;;;1.06;85.37;97322.31;5070170;28;20123;-60
2023/10/29 00:40:39;;;;;;;4.60;2.85;;;;;;;1.06;85.52;97315.31;5071556;28;20051;-60
2023/10/29 00:43:05;;;;;;;3.83;2.50;;;;;;;1.11;84.96;97314.59;5069754;28;20056;-59
2023/10/29 00:45:31;;;;;;;4.50;3.08;;;;;;;1.13;84.66;97315.19;5071320;28;20094;-62
2023/10/29 00:47:58;;;;;;;3.50;2.58;;;;;;;1.17;84.45;97323.34;5053486;28;20048;-59
2023/10/29 00:50:24;;;;;;;7.40;3.05;;;;;;;1.23;84.49;97325.03;5062306;28;20041;-58
2023/10/29 00:52:51;;;;;;;4.50;2.65;;;;;;;1.23;84.21;97322.44;5058328;28;20102;-60
2023/10/29 00:55:18;;;;;;;3.22;2.35;;;;;;;1.21;84.12;97329.72;5059952;28;20173;-60
2023/10/29 00:57:44;;;;;;;3.45;2.22;;;;;;;1.12;84.09;97322.22;5060451;28;20044;-59
2023/10/29 01:00:11;;;;;;;3.38;2.47;;;;;;;1.10;84.22;97329.47;5059798;28;20110;-61
2023/10/29 01:02:37;;;;;;;3.05;2.60;;;;;;;1.07;84.56;97336.97;5061173;28;20044;-59
2023/10/29 01:05:05;;;;;;;2.83;2.25;;;;;;;1.06;85.11;97340.56;5060032;28;20109;-60
2023/10/29 01:07:31;;;;;;;2.53;2.30;;;;;;;1.06;84.98;97340.56;5058311;28;20041;-60
2023/10/29 01:10:00;;;;;;;2.50;2.10;;;;;;;1.11;84.32;97345.91;5060780;28;20051;-59
2023/10/29 01:12:27;;;;;;;2.60;2.05;;;;;;;1.17;84.21;97342.41;5060191;28;20040;-59
2023/10/29 01:14:53;;;;;;;2.53;1.90;;;;;;;1.16;84.51;97345.25;5060382;28;20037;-59
2023/10/29 01:17:21;;;;;;;3.33;2.40;;;;;;;1.11;84.59;97357.16;5059492;28;20052;-57
2023/10/29 01:19:47;;;;;;;3.25;2.17;;;;;;;1.05;85.20;97360.66;5058431;28;20041;-58
2023/10/29 01:22:12;;;;;;;2.47;1.90;;;;;;;1.02;84.98;97362.94;5049800;28;20561;-60
2023/10/29 01:24:39;;;;;;;2.10;1.80;;;;;;;1.06;85.26;97374.50;5061207;28;20048;-61
2023/10/29 01:27:05;;;;;;;2.50;1.98;;;;;;;1.05;85.31;97376.31;5058954;28;20077;-59
2023/10/29 01:29:30;;;;;;;2.25;1.90;;;;;;;1.07;85.23;97376.91;5054741;28;20124;-62
2023/10/29 01:31:56;;;;;;;3.40;2.17;;;;;;;1.12;85.18;97386.66;5052948;28;20091;-59
2023/10/29 01:34:22;;;;;;;2.13;1.70;;;;;;;1.12;85.02;97384.06;5052573;28;20072;-59
2023/10/29 01:36:48;;;;;;;2.42;1.85;;;;;;;1.14;84.88;97390.63;5054750;28;20057;-60
2023/10/29 01:39:13;;;;;;;2.40;2.03;;;;;;;1.10;84.84;97386.88;5052846;28;20037;-59
2023/10/29 01:41:39;;;;;;;3.25;2.25;;;;;;;1.10;84.84;97389.50;5054493;28;20044;-59
2023/10/29 01:44:05;;;;;;;2.35;1.80;;;;;;;1.06;85.73;97390.97;5053270;28;20044;-59
2023/10/29 01:46:31;;;;;;;2.92;2.38;;;;;;;1.04;85.81;97395.59;5054589;28;20094;-60
2023/10/29 01:48:56;;;;;;;2.08;1.85;;;;;;;1.09;84.92;97400.97;5054378;28;20049;-61
2023/10/29 01:51:22;;;;;;;3.00;2.20;;;;;;;1.19;85.07;97404.81;5053175;28;20525;-58
2023/10/29 01:53:48;;;;;;;2.10;1.90;;;;;;;1.16;84.30;97400.84;5064085;28;20140;-64
2023/10/29 01:56:14;;;;;;;1.92;1.60;;;;;;;1.12;84.39;97400.50;5036609;28;20056;-58
2023/10/29 01:58:40;;;;;;;2.42;1.70;;;;;;;1.16;84.32;97406.06;5053124;28;20498;-59
2023/10/29 02:01:10;;;;;;;2.05;1.63;;;;;;;1.06;83.94;97409.25;5040948;28;20045;-60
2023/10/29 02:03:36;;;;;;;2.67;1.85;;;;;;;1.10;84.16;97412.97;5054156;28;20055;-59
2023/10/29 02:06:03;;;;;;;2.40;1.90;;;;;;;1.18;83.98;97414.47;5054329;28;20164;-59
2023/10/29 02:08:28;;;;;;;1.85;1.70;;;;;;;1.12;84.09;97425.81;5053032;28;20036;-58
2023/10/29 02:10:54;;;;;;;2.25;1.70;;;;;;;1.17;83.92;97425.91;5035631;28;20056;-60
2023/10/29 02:13:20;;;;;;;3.38;1.95;;;;;;;1.01;84.08;97434.41;5052914;28;20032;-60
2023/10/29 02:15:46;;;;;;;2.05;1.80;;;;;;;1.04;85.04;97441.78;5035985;28;20529;-62
2023/10/29 02:18:12;;;;;;;2.35;1.80;;;;;;;0.97;85.34;97441.88;5052465;28;20510;-59
2023/10/29 02:20:58;;;;;;;3.85;2.10;;;;;;;1.04;84.41;97447.78;5039315;28;20544;-59
2023/10/29 02:23:24;;;;;;;2.55;2.00;;;;;;;1.02;84.45;97446.41;5052308;28;20057;-58
2023/10/29 02:25:50;;;;;;;3.08;2.30;;;;;;;1.06;84.48;97452.78;5052414;28;20048;-58
2023/10/29 02:28:16;;;;;;;2.10;1.90;;;;;;;1.00;83.84;97453.66;5052376;28;20418;-58
2023/10/29 02:30:42;;;;;;;3.45;2.75;;;;;;;0.97;84.77;97461.94;5052382;28;20127;-60
2023/10/29 02:33:08;;;;;;;3.78;2.47;;;;;;;1.05;84.21;97461.63;5035966;28;20057;-61
2023/10/29 02:35:34;;;;;;;3.50;2.88;;;;;;;1.02;84.01;97465.47;5053335;28;20036;-62
2023/10/29 02:38:00;;;;;;;2.75;2.20;;;;;;;0.97;84.67;97464.56;5053866;28;20502;-59
2023/10/29 02:40:25;;;;;;;3.38;2.75;;;;;;;0.94;84.25;97473.63;5053544;28;20044;-61
2023/10/29 02:42:51;;;;;;;2.85;2.55;;;;;;;1.00;84.20;97475.34;5035447;28;20121;-60
2023/10/29 02:45:17;;;;;;;4.97;2.78;;;;;;;0.97;84.36;97486.25;5053295;28;20574;-60
2023/10/29 02:47:42;;;;;;;3.08;2.60;;;;;;;0.88;84.32;97480.53;5052116;28;20051;-60
2023/10/29 02:50:08;;;;;;;3.35;2.58;;;;;;;0.94;84.32;97481.44;5051900;28;20033;-61
2023/10/29 02:52:34;;;;;;;4.20;3.22;;;;;;;1.01;84.16;97489.97;5053339;28;20040;-58
2023/10/29 02:55:00;;;;;;;4.45;3.03;;;;;;;1.01;84.16;97497.81;5052943;28;20052;-60
2023/10/29 02:57:29;;;;;;;3.42;2.85;;;;;;;0.98;84.48;97502.69;5035277;28;20099;-60
2023/10/29 02:59:54;;;;;;;5.07;3.22;;;;;;;0.97;84.67;97507.13;5053038;28;20040;-59
2023/10/29 03:02:20;;;;;;;5.78;3.50;;;;;;;0.97;84.81;97516.72;5070023;28;20468;-59
2023/10/29 03:04:46;;;;;;;5.00;4.00;;;;;;;0.95;84.72;97514.34;5073216;28;20048;-61
2023/10/29 03:07:12;;;;;;;5.03;3.97;;;;;;;1.01;84.33;97523.91;5071813;28;20098;-59
2023/10/29 03:09:39;;;;;;;7.47;4.15;;;;;;;1.00;84.06;97521.50;5071571;28;20513;-59
2023/10/29 03:12:06;;;;;;;6.78;4.43;;;;;;;1.05;83.90;97525.03;5072699;28;20048;-60
2023/10/29 03:14:31;;;;;;;6.35;4.03;;;;;;;1.00;84.06;97534.53;5071451;28;20043;-58
2023/10/29 03:16:57;;;;;;;5.30;4.00;;;;;;;1.01;83.89;97539.56;5071662;28;20414;-60
2023/10/29 03:19:23;;;;;;;5.85;4.57;;;;;;;0.98;83.91;97534.78;5072855;28;20409;-59
2023/10/29 03:21:49;;;;;;;6.28;4.65;;;;;;;0.99;83.47;97541.59;5072846;28;20418;-61
2023/10/29 03:24:15;;;;;;;4.97;4.00;;;;;;;0.93;83.43;97545.06;5072806;28;20041;-58
2023/10/29 03:26:43;;;;;;;4.57;3.80;;;;;;;0.97;82.89;97545.44;5055045;28;20053;-59
2023/10/29 03:29:09;;;;;;;6.57;4.82;;;;;;;1.03;83.28;97553.19;5071286;28;20509;-59
2023/10/29 03:31:35;;;;;;;5.65;4.30;;;;;;;1.06;82.84;97546.72;5072628;28;20052;-58
2023/10/29 03:34:00;;;;;;;5.53;4.55;;;;;;;1.10;82.96;97558.31;5071150;28;20036;-61
2023/10/29 03:36:26;;;;;;;6.18;3.60;;;;;;;1.02;82.43;97551.56;5072389;28;20048;-59
2023/10/29 03:38:52;;;;;;;4.70;3.55;;;;;;;1.06;82.77;97554.53;5070949;28;20418;-61
2023/10/29 03:41:22;;;;;;;5.18;4.05;;;;;;;1.04;82.26;97554.78;5071244;28;20140;-60
2023/10/29 03:43:49;;;;;;;6.35;4.43;;;;;;;1.08;82.36;97568.16;5054149;28;20049;-59
2023/10/29 03:46:15;;;;;;;5.05;3.80;;;;;;;0.99;82.04;97569.50;5072469;28;20045;-58
2023/10/29 03:48:44;;;;;;;6.28;4.40;;;;;;;1.07;82.54;97574.41;5071734;28;20044;-58
2023/10/29 03:51:12;;;;;;;5.63;4.38;;;;;;;1.10;81.99;97572.16;5070952;28;20052;-60
2023/10/29 03:53:38;;;;;;;6.50;4.57;;;;;;;1.13;81.85;97579.53;5071846;28;20060;-59
2023/10/29 03:56:04;;;;;;;5.30;4.20;;;;;;;1.14;81.76;97582.94;5072249;28;20082;-60
2023/10/29 03:58:31;;;;;;;6.03;4.70;;;;;;;1.16;81.68;97586.13;5070669;28;20044;-59
2023/10/29 04:01:01;;;;;;;7.32;4.68;;;;;;;1.06;81.75;97597.09;5070973;28;20056;-59
2023/10/29 04:03:30;;;;;;;6.75;4.95;;;;;;;1.05;81.91;97602.53;5070657;28;20127;-59
2023/10/29 04:05:56;;;;;;;6.10;4.68;;;;;;;1.04;81.05;97606.97;5071966;28;20033;-60
2023/10/29 04:08:22;;;;;;;5.07;4.03;;;;;;;1.02;81.22;97614.19;5070370;28;20094;-60
2023/10/29 04:10:48;;;;;;;6.40;4.82;;;;;;;1.05;81.10;97610.34;5071874;28;20033;-60
2023/10/29 04:13:14;;;;;;;6.40;5.20;;;;;;;1.01;82.17;97612.63;5071972;28;20045;-59
2023/10/29 04:15:39;;;;;;;6.38;4.70;;;;;;;0.99;81.66;97632.09;5071121;28;20472;-61
2023/10/29 04:18:05;;;;;;;8.15;4.60;;;;;;;0.98;81.56;97622.69;5070482;28;20105;-59
2023/10/29 04:20:31;;;;;;;6.28;4.68;;;;;;;0.99;82.13;97632.91;5071405;28;20033;-61
2023/10/29 04:22:57;;;;;;;6.75;4.93;;;;;;;1.00;81.28;97639.72;5071825;28;20127;-60
2023/10/29 04:25:22;;;;;;;7.80;5.10;;;;;;;0.98;81.86;97640.97;5070263;28;20040;-60
2023/10/29 04:27:48;;;;;;;6.22;4.47;;;;;;;0.87;82.15;97650.31;5053636;28;20040;-59
2023/10/29 04:30:14;;;;;;;7.57;4.63;;;;;;;0.86;81.98;97652.13;5071463;28;20037;-58
2023/10/29 04:32:39;;;;;;;5.40;4.15;;;;;;;0.84;82.38;97651.53;5071723;28;20041;-59
2023/10/29 04:35:05;;;;;;;5.78;4.20;;;;;;;0.88;82.15;97647.50;5071715;28;20037;-60
2023/10/29 04:37:31;;;;;;;6.15;4.68;;;;;;;0.88;82.77;97657.91;5071556;28;20052;-59
2023/10/29 04:39:57;;;;;;;5.55;4.50;;;;;;;0.66;83.73;97656.75;5071339;28;20113;-59
2023/10/29 04:42:23;;;;;;;11.40;5.45;;;;;;;0.75;84.41;97654.66;5071505;28;20053;-60
2023/10/29 04:44:49;;;;;;;7.32;4.90;;;;;;;0.77;83.47;97665.66;5070377;28;20486;-60
2023/10/29 04:47:15;;;;;;;8.60;5.80;;;;;;;0.79;84.63;97663.63;5071550;28;20048;-59
2023/10/29 04:49:43;;;;;;;8.93;6.00;;;;;;;0.72;83.84;97665.50;5071371;28;20047;-57
2023/10/29 04:52:09;;;;;;;9.50;5.68;;;;;;;0.74;83.66;97673.94;5071527;28;20071;-59
2023/10/29 04:54:34;;;;;;;7.32;5.15;;;;;;;0.82;83.97;97676.22;5070944;28;20052;-60
2023/10/29 04:57:00;;;;;;;8.73;5.50;;;;;;;0.81;83.44;97677.25;5071532;28;20383;-59
2023/10/29 04:59:26;;;;;;;11.02;6.07;;;;;;;0.75;84.09;97688.56;5074290;28;20036;-60
2023/10/29 05:01:51;;;;;;;8.27;5.50;;;;;;;0.75;84.38;97691.16;5075162;28;20045;-59
2023/10/29 05:04:17;;;;;;;9.93;5.43;;;;;;;0.66;84.62;97688.03;5074938;28;20123;-61
2023/10/29 05:06:43;;;;;;;9.25;6.07;;;;;;;0.68;84.59;97696.44;5075324;28;20060;-60
2023/10/29 05:09:09;;;;;;;8.75;5.93;;;;;;;0.61;85.63;97698.31;5075058;28;20414;-60
2023/10/29 05:11:35;;;;;;;11.65;6.38;;;;;;;0.72;85.72;97691.59;5074057;28;20051;-59
2023/10/29 05:14:01;;;;;;;7.60;5.43;;;;;;;0.77;85.21;97699.56;5073815;28;20048;-58
2023/10/29 05:16:27;;;;;;;9.30;6.30;;;;;;;0.84;85.12;97701.09;5074603;28;20063;-57
2023/10/29 05:18:53;;;;;;;9.68;6.82;;;;;;;0.89;85.00;97703.84;5074775;28;20044;-62
2023/10/29 05:21:20;;;;;;;12.20;6.28;;;;;;;0.84;84.82;97698.47;5075104;28;20135;-58
2023/10/29 05:23:46;;;;;;;11.77;6.50;;;;;;;0.95;84.47;97711.84;5074936;28;20055;-59
2023/10/29 05:26:12;;;;;;;9.57;6.18;;;;;;;0.95;84.46;97712.63;5075071;28;20501;-58
2023/10/29 05:28:37;;;;;;;9.75;6.63;;;;;;;0.82;84.42;97713.53;5074561;28;20032;-60
2023/10/29 05:31:03;;;;;;;9.75;6.82;;;;;;;0.95;84.94;97717.06;5074609;28;20075;-59
2023/10/29 05:33:29;;;;;;;11.88;7.45;;;;;;;1.01;84.78;97711.75;5074608;28;20041;-61
2023/10/29 05:35:57;;;;;;;11.65;7.40;;;;;;;0.98;84.42;97717.41;5074729;28;20043;-59
2023/10/29 05:38:23;;;;;;;11.35;7.38;;;;;;;1.07;84.34;97726.56;5068313;28;20072;-59
2023/10/29 05:40:48;;;;;;;10.27;6.05;;;;;;;1.02;84.28;97730.81;5064764;28;20063;-59
2023/10/29 05:43:14;;;;;;;14.10;8.20;;;;;;;1.07;84.68;97728.38;5064209;28;20498;-59
2023/10/29 05:45:40;;;;;;;13.50;7.72;;;;;;;1.07;84.44;97737.00;5063367;28;20535;-60
2023/10/29 05:48:05;;;;;;;13.68;8.45;;;;;;;0.95;85.08;97735.31;5065295;28;20406;-60
2023/10/29 05:50:31;;;;;;;14.73;8.00;;;;;;;0.92;85.36;97754.81;5056264;28;20041;-61
2023/10/29 05:52:57;;;;;;;19.15;8.32;;;;;;;0.82;85.71;97747.44;5070584;28;20045;-58
2023/10/29 05:55:23;;;;;;;11.77;7.72;;;;;;;0.92;85.89;97759.22;5068270;28;20556;-59
2023/10/29 05:57:49;;;;;;;14.23;7.78;;;;;;;0.94;85.57;97762.41;5054928;28;20326;-59
2023/10/29 06:00:15;;;;;;;13.30;7.60;;;;;;;0.93;85.38;97766.81;5055171;28;20045;-60
2023/10/29 06:02:41;;;;;;;15.27;8.07;;;;;;;0.99;85.26;97770.41;5048531;28;20079;-61
2023/10/29 06:05:07;;;;;;;17.08;7.80;;;;;;;1.10;85.08;97778.31;5066110;28;20502;-59
2023/10/29 06:07:33;;;;;;;12.13;7.45;;;;;;;1.10;84.99;97782.72;5074279;28;20041;-60
2023/10/29 06:09:58;;;;;;;13.25;7.40;;;;;;;1.09;84.35;97781.16;5052135;28;20037;-56
2023/10/29 06:12:24;;;;;;;17.30;7.35;;;;;;;1.09;84.46;97778.53;5061977;28;20036;-59
2023/10/29 06:14:50;;;;;;;14.98;7.82;;;;;;;1.19;84.53;97778.03;5064379;28;20032;-60
2023/10/29 06:17:16;;;;;;;12.45;7.13;;;;;;;1.03;83.96;97776.75;5062813;28;20072;-61
2023/10/29 06:19:42;;;;;;;12.73;7.38;;;;;;;1.02;84.47;97785.63;5074021;28;20040;-59
2023/10/29 06:22:10;;;;;;;17.95;7.93;;;;;;;1.05;84.44;97782.56;5071689;28;20071;-58
2023/10/29 06:24:36;;;;;;;14.20;7.53;;;;;;;1.05;84.57;97785.97;5063344;28;20044;-59
2023/10/29 06:27:02;;;;;;;15.13;8.82;;;;;;;1.03;84.81;97790.63;5060194;28;20049;-60
2023/10/29 06:29:28;;;;;;;13.98;7.38;;;;;;;1.02;84.66;97796.06;5052594;28;20036;-60
2023/10/29 06:31:54;;;;;;;13.45;7.75;;;;;;;1.02;84.73;97799.47;5052982;28;20503;-59
2023/10/29 06:34:21;;;;;;;12.45;8.30;;;;;;;1.02;85.04;97799.47;5053429;28;20041;-60
2023/10/29 06:36:47;;;;;;;14.40;8.00;;;;;;;1.10;84.37;97804.41;5053761;28;20498;-60
2023/10/29 06:39:13;;;;;;;15.40;8.35;;;;;;;1.07;84.06;97812.66;5053726;28;20037;-58
2023/10/29 06:41:38;;;;;;;12.93;8.05;;;;;;;1.08;83.78;97809.03;5053696;28;20052;-57
2023/10/29 06:44:04;;;;;;;14.55;7.70;;;;;;;1.03;84.35;97813.28;5052815;28;20091;-61
2023/10/29 06:46:31;;;;;;;16.13;8.73;;;;;;;1.00;84.58;97822.38;5052988;28;20096;-60
2023/10/29 06:48:58;;;;;;;14.38;8.23;;;;;;;0.94;84.63;97817.19;5053342;28;20076;-58
2023/10/29 06:51:24;;;;;;;11.27;7.60;;;;;;;0.89;84.38;97823.06;5053147;28;20049;-55
2023/10/29 06:53:50;;;;;;;15.27;8.68;;;;;;;0.87;85.05;97822.47;5052715;28;20525;-55
2023/10/29 06:56:16;;;;;;;15.65;8.35;;;;;;;0.89;84.56;97823.06;5053044;28;20476;-56
2023/10/29 06:58:42;;;;;;;15.25;8.57;;;;;;;0.87;84.29;97827.69;5019209;28;20040;-59
2023/10/29 07:01:09;;;;;;;16.25;8.48;;;;;;;0.93;84.39;97841.69;5062502;28;20383;-59
2023/10/29 07:03:36;;;;;;;15.88;8.68;;;;;;;0.90;84.09;97841.09;5061345;28;20567;-52
2023/10/29 07:06:11;;;;;;;12.73;8.32;;;;;;;0.93;84.04;97845.09;5055574;28;20033;-59
2023/10/29 07:08:38;;;;;;;14.10;7.78;;;;;;;0.86;83.78;97849.56;5053091;28;20123;-58
2023/10/29 07:11:04;;;;;;;15.35;8.23;;;;;;;0.91;83.35;97862.75;5053063;28;20124;-57
2023/10/29 07:13:31;;;;;;;17.67;8.65;;;;;;;0.87;83.72;97865.00;5052990;28;20041;-57
2023/10/29 07:15:59;;;;;;;15.35;8.50;;;;;;;0.92;84.05;97861.78;5052645;28;20502;-57
2023/10/29 07:18:25;;;;;;;16.33;8.18;;;;;;;0.92;83.70;97866.19;5052589;28;20041;-55
2023/10/29 07:20:54;;;;;;;13.95;8.10;;;;;;;0.87;83.30;97872.03;5057531;28;20040;-59
2023/10/29 07:23:20;;;;;;;16.58;8.35;;;;;;;0.98;83.00;97879.19;5060125;28;20079;-58
2023/10/29 07:25:47;;;;;;;13.50;8.45;;;;;;;1.06;83.05;97880.72;5062166;28;20075;-58
2023/10/29 07:28:16;;;;;;;13.68;7.70;;;;;;;1.07;82.80;97882.34;5061476;28;20045;-61
2023/10/29 07:30:43;;;;;;;12.48;7.68;;;;;;;1.07;83.01;97896.16;5061243;28;20533;-57
2023/10/29 07:33:10;;;;;;;16.50;8.95;;;;;;;1.18;82.50;97897.31;5061877;28;20123;-59
2023/10/29 07:35:36;;;;;;;12.85;8.32;;;;;;;1.22;82.15;97901.06;5062624;28;20028;-60
2023/10/29 07:38:02;;;;;;;11.93;7.93;;;;;;;1.17;81.67;97902.72;5060856;28;20041;-59
2023/10/29 07:40:28;;;;;;;16.33;8.85;;;;;;;1.09;81.81;97893.38;5060373;28;20406;-57
2023/10/29 07:42:54;;;;;;;14.90;8.52;;;;;;;1.21;81.53;97903.91;5068790;28;20348;-61
2023/10/29 07:45:19;;;;;;;12.63;7.82;;;;;;;1.33;81.41;97910.81;5059390;28;20040;-61
2023/10/29 07:47:45;;;;;;;11.88;7.25;;;;;;;1.27;80.82;97911.69;5057354;28;20101;-60
2023/10/29 07:50:11;;;;;;;13.10;7.90;;;;;;;1.31;81.48;97920.66;5052131;28;20045;-62
2023/10/29 07:52:39;;;;;;;15.20;8.98;;;;;;;1.35;81.38;97927.09;5052184;28;20045;-59
2023/10/29 07:55:08;;;;;;;15.07;7.85;;;;;;;1.48;81.23;97931.38;5043175;28;20040;-59
2023/10/29 07:57:34;;;;;;;17.05;8.02;;;;;;;1.47;80.37;97937.63;5072184;28;20147;-56
2023/10/29 08:00:00;;;;;;;14.38;7.78;;;;;;;1.48;80.46;97941.84;5068304;28;20124;-56
2023/10/29 08:02:26;;;;;;;12.27;7.78;;;;;;;1.47;80.58;97942.84;5049777;28;20053;-56
2023/10/29 08:04:51;;;;;;;11.95;8.13;;;;;;;1.63;80.67;97949.34;5051879;28;20045;-58
2023/10/29 08:07:17;;;;;;;16.65;8.82;;;;;;;1.62;80.56;97952.97;5052032;28;20047;-56
2023/10/29 08:09:43;;;;;;;12.88;8.50;;;;;;;1.53;80.51;97957.66;5051764;28;20124;-57
2023/10/29 08:12:09;;;;;;;14.82;7.85;;;;;;;1.47;80.67;97960.31;5051851;28;20060;-55
2023/10/29 08:14:34;;;;;;;12.85;8.10;;;;;;;1.54;80.71;97968.91;5051647;28;20087;-59
2023/10/29 08:17:00;;;;;;;13.02;7.68;;;;;;;1.52;80.36;97966.50;5051896;28;20099;-60
2023/10/29 08:19:27;;;;;;;12.00;7.15;;;;;;;1.42;80.49;97973.22;5051073;28;20044;-62
2023/10/29 08:21:53;;;;;;;14.52;8.38;;;;;;;1.45;81.08;97967.56;5051656;28;20064;-58
2023/10/29 08:24:18;;;;;;;14.18;8.82;;;;;;;1.44;81.17;97976.41;5051366;28;20064;-59
2023/10/29 08:26:44;;;;;;;15.70;9.27;;;;;;;1.53;80.68;97970.72;5051473;28;20462;-57
2023/10/29 08:29:11;;;;;;;13.18;7.65;;;;;;;1.43;80.90;97970.38;5056896;28;20505;-59
2023/10/29 08:31:37;;;;;;;11.35;7.50;;;;;;;1.41;81.01;97972.41;5061480;28;20043;-56
2023/10/29 08:34:02;;;;;;;14.52;8.43;;;;;;;1.42;80.97;97988.91;5057743;28;20119;-59
2023/10/29 08:36:28;;;;;;;15.07;8.25;;;;;;;1.47;80.94;97983.81;5049467;28;20045;-58
2023/10/29 08:38:54;;;;;;;16.58;9.20;;;;;;;1.58;81.03;97985.72;5050081;28;20047;-62
2023/10/29 08:41:20;;;;;;;14.98;9.20;;;;;;;1.55;81.32;98002.63;5051302;28;20122;-59
2023/10/29 08:43:45;;;;;;;14.82;8.65;;;;;;;1.52;80.09;97997.84;5049785;28;20047;-60
2023/10/29 08:46:12;;;;;;;15.75;9.35;;;;;;;1.53;80.03;98002.06;5050866;28;20380;-60
2023/10/29 08:48:38;;;;;;;15.30;9.52;;;;;;;1.57;80.40;98000.63;5051094;28;20047;-58
2023/10/29 08:51:05;;;;;;;13.60;8.07;;;;;;;1.53;80.06;98001.25;5057378;28;20040;-59
2023/10/29 08:53:31;;;;;;;18.08;9.93;;;;;;;1.65;80.59;98012.63;5071184;28;20040;-63
2023/10/29 08:55:57;;;;;;;15.82;9.65;;;;;;;1.57;80.39;98011.06;5070982;28;20209;-59
2023/10/29 08:58:23;;;;;;;15.02;8.68;;;;;;;1.58;80.13;98015.25;5071435;28;20593;-59
2023/10/29 09:00:49;;;;;;;14.07;8.40;;;;;;;1.59;79.97;98014.25;5065257;28;20048;-59
2023/10/29 09:03:15;;;;;;;14.40;8.27;;;;;;;1.61;79.55;98026.31;5051177;28;20560;-60
2023/10/29 09:05:42;;;;;;;15.30;8.90;;;;;;;1.64;79.54;98018.03;5051209;28;20437;-60
2023/10/29 09:08:08;;;;;;;13.98;8.30;;;;;;;1.71;79.42;98022.22;5033056;28;20557;-57
2023/10/29 09:10:36;;;;;;;16.17;9.48;;;;;;;1.67;79.66;98028.84;5051250;28;20135;-62
2023/10/29 09:13:01;;;;;;;15.40;8.77;;;;;;;1.79;79.70;98032.41;5051429;28;20048;-60
2023/10/29 09:15:27;;;;;;;13.80;9.15;;;;;;;1.86;79.03;98029.72;5051193;28;20049;-62
2023/10/29 09:17:53;;;;;;;17.83;8.82;;;;;;;1.89;78.26;98037.13;5051349;28;20049;-60
2023/10/29 09:20:19;;;;;;;15.38;8.88;;;;;;;1.92;78.20;98028.88;5050834;28;20041;-59
2023/10/29 09:22:46;;;;;;;12.95;8.88;;;;;;;1.98;78.14;98035.84;5051148;28;20051;-60
2023/10/29 09:25:12;;;;;;;11.82;7.30;;;;;;;2.03;77.01;98043.06;5051300;28;20041;-62
2023/10/29 09:27:38;;;;;;;13.20;7.68;;;;;;;2.04;77.16;98047.25;5051069;28;20051;-59
2023/10/29 09:30:05;;;;;;;13.10;8.85;;;;;;;2.09;77.61;98041.38;5050963;28;20079;-60
2023/10/29 09:32:32;;;;;;;12.70;7.70;;;;;;;2.05;76.25;98048.84;5051088;28;20080;-61
2023/10/29 09:34:58;;;;;;;12.10;8.38;;;;;;;2.10;75.98;98059.47;5051018;28;20044;-59
2023/10/29 09:37:24;;;;;;;14.55;8.75;;;;;;;2.15;76.26;98056.22;5050726;28;20049;-61
2023/10/29 09:39:50;;;;;;;13.15;8.18;;;;;;;2.13;76.29;98048.56;5050985;28;20194;-60
2023/10/29 09:42:18;;;;;;;12.43;7.95;;;;;;;2.25;76.12;98062.53;5050694;28;20127;-60
2023/10/29 09:44:44;;;;;;;11.57;7.63;;;;;;;2.28;75.64;98056.06;5050905;28;20520;-60
2023/10/29 09:47:15;;;;;;;13.63;7.72;;;;;;;2.24;75.37;98068.00;5053204;28;20045;-62
2023/10/29 09:49:41;;;;;;;14.18;8.85;;;;;;;2.22;75.76;98070.00;5054584;28;20473;-61
2023/10/29 09:52:08;;;;;;;13.35;8.88;;;;;;;2.20;76.09;98064.19;5054636;28;20060;-62
2023/10/29 09:54:34;;;;;;;12.70;7.57;;;;;;;2.21;75.72;98076.28;5054294;28;20076;-62
2023/10/29 09:57:00;;;;;;;10.95;7.65;;;;;;;2.16;75.94;98091.78;5048467;28;20045;-60
2023/10/29 09:59:25;;;;;;;14.63;8.30;;;;;;;2.10;76.17;98090.84;5053077;28;20051;-60
2023/10/29 10:01:51;;;;;;;13.10;8.57;;;;;;;2.17;76.64;98093.38;5068347;28;20048;-61
2023/10/29 10:04:17;;;;;;;13.50;8.20;;;;;;;2.19;75.75;98100.00;5073648;28;20065;-60
2023/10/29 10:06:43;;;;;;;10.95;7.35;;;;;;;2.23;75.88;98097.75;5065673;28;20086;-62
2023/10/29 10:09:10;;;;;;;12.35;7.60;;;;;;;2.11;75.52;98104.69;5063093;28;20048;-60
2023/10/29 10:11:36;;;;;;;16.65;8.10;;;;;;;2.08;76.15;98113.75;5062778;28;20064;-62
2023/10/29 10:14:03;;;;;;;13.68;8.63;;;;;;;1.99;76.36;98108.00;5039282;28;20048;-62
2023/10/29 10:16:29;;;;;;;11.68;7.88;;;;;;;1.98;76.56;98108.22;5051906;28;20037;-61
2023/10/29 10:18:57;;;;;;;15.57;7.70;;;;;;;1.99;77.16;98115.84;5052924;28;20144;-62
2023/10/29 10:21:40;;;;;;;12.13;7.72;;;;;;;2.06;77.87;98115.81;5053267;28;20080;-61
2023/10/29 10:24:06;;;;;;;10.35;7.07;;;;;;;2.09;76.90;98118.00;5051990;28;20570;-60
2023/10/29 10:26:34;;;;;;;11.02;7.22;;;;;;;2.04;76.89;98125.66;5052783;28;20191;-61
2023/10/29 10:29:04;;;;;;;11.98;7.50;;;;;;;2.03;76.59;98129.31;5053475;28;20563;-61
2023/10/29 10:31:35;;;;;;;12.15;7.80;;;;;;;1.92;76.71;98130.78;5053394;28;20067;-60
2023/10/29 10:34:10;;;;;;;10.82;6.80;;;;;;;1.94;77.01;98136.59;5053124;28;20056;-61
2023/10/29 10:36:36;;;;;;;12.38;7.57;;;;;;;2.03;76.78;98134.53;5053264;28;20032;-61
2023/10/29 10:39:02;;;;;;;9.07;6.85;;;;;;;2.07;76.26;98134.91;5052865;28;20052;-60
2023/10/29 10:41:45;;;;;;;10.57;7.15;;;;;;;2.00;76.88;98143.59;5052555;28;20044;-60
2023/10/29 10:44:15;;;;;;;12.65;7.15;;;;;;;1.93;77.61;98153.28;5053195;28;20049;-60
2023/10/29 10:46:51;;;;;;;9.45;7.10;;;;;;;1.91;77.46;98157.94;5053133;28;20139;-61
2023/10/29 10:49:18;;;;;;;11.60;8.07;;;;;;;1.88;77.75;98160.94;5052785;28;20049;-61
2023/10/29 10:51:46;;;;;;;11.35;7.15;;;;;;;1.69;78.54;98159.28;5052891;28;20052;-60
2023/10/29 10:54:13;;;;;;;12.15;6.47;;;;;;;1.70;77.86;98153.81;5052653;28;20049;-60
2023/10/29 10:56:38;;;;;;;9.98;6.75;;;;;;;1.72;78.42;98172.72;5052188;28;20048;-59
2023/10/29 10:59:08;;;;;;;10.07;6.47;;;;;;;1.75;77.92;98166.28;5051411;28;20037;-59
2023/10/29 11:01:35;;;;;;;9.43;6.25;;;;;;;1.75;77.50;98177.50;5064518;28;20729;-60
2023/10/29 11:04:03;;;;;;;9.52;6.55;;;;;;;1.78;77.87;98182.31;5072351;28;20078;-59
2023/10/29 11:06:32;;;;;;;14.20;8.95;;;;;;;1.86;78.43;98186.50;5065145;28;20491;-63
2023/10/29 11:09:01;;;;;;;10.85;7.20;;;;;;;1.86;78.44;98188.31;5062259;28;20047;-60
2023/10/29 11:11:35;;;;;;;9.60;6.95;;;;;;;1.94;78.82;98191.50;5061067;28;20053;-59
2023/10/29 11:14:11;;;;;;;11.90;7.93;;;;;;;1.99;78.47;98194.25;5060882;28;20053;-60
2023/10/29 11:16:55;;;;;;;9.85;6.32;;;;;;;1.98;77.88;98200.50;5061506;28;20114;-60
2023/10/29 11:19:43;;;;;;;10.07;6.78;;;;;;;1.95;77.98;98206.16;5062413;28;20403;-57
2023/10/29 11:22:13;;;;;;;10.02;6.45;;;;;;;1.92;77.94;98218.84;5044644;28;20121;-58
2023/10/29 11:24:39;;;;;;;9.57;6.85;;;;;;;1.95;78.17;98223.66;5061841;28;20037;-58
2023/10/29 11:27:35;;;;;;;9.15;6.35;;;;;;;1.93;77.93;98229.06;5060649;28;20090;-59
2023/10/29 11:30:21;;;;;;;9.25;6.50;;;;;;;2.02;78.82;98221.78;5061538;28;20178;-59
2023/10/29 11:33:06;;;;;;;9.93;7.07;;;;;;;2.07;78.07;98232.41;5035689;28;20051;-56
2023/10/29 11:35:40;;;;;;;10.00;6.68;;;;;;;2.09;78.07;98230.41;5060351;28;20116;-60